Station info - map view · info · telemetry · weather · raw · status · beacons · messages · bulletins · browse · moving · my account
Callsign, ship name or locator: Clear       
It is possible to search using wildcards (*?) after a prefix. Example: OH*
APRS station LE3XDA - show graphs
Map loading...
Comment: Sambandstjenesten TEST
Location: 69°28.34' N 17°41.71' E - locator JP89UL33KI - show map - static map
9.8 miles East bearing 79° from Skaland, Berg, Troms, Norway [?]
17.3 miles Northeast bearing 64° from Gryllefjord, Torsken, Troms, Norway
32.7 miles West bearing 249° from Tromsø, Tromsø, Troms, Norway
54.5 miles Northeast bearing 31° from Harstad, Harstad, Troms, Norway
Last position: 2018-07-14 12:18:41 EDT (1d 12h45m ago)
2018-07-14 18:18:41 CEST local time at Skaland, Norway [?]
Altitude: 456 ft
Device: Argent Data Systems: OpenTracker (tracker)
Last path: LE3XDA>APOT21 via LD9TK,WIDE1*,WIDE3-3,qAR,LA9UI-2 (suboptimal)
This station is transmitting packets with a configured path of over 3 digipeaters. This causes serious congestion in the APRS network and errors when plotting the station's route on a map. Please consider using a path of WIDE1-1,WIDE2-1 or WIDE2-2, or even WIDE1-1,WIDE2-2 if you are moving very far away from an iGATE.
Positions stored: 74
Packet rate: 787 seconds between packets on average during 38541 seconds.
APRS digipeater – Statistics for 2018-07:
Stations heard directly: 20 on radio path – show map
Last heard a station directly: 2018-07-14 12:19:25 EDT (1d 12h44m ago)
Position packets heard directly: 471 on radio path
Stations near current position of LE3XDA - show more
callsign distance last heard - EDT      callsign distance last heard - EDT
LE3XA6.0 miles 248°2018-07-14 10:58:58 LE3XTK6.0 miles 248°2018-07-14 10:14:53
LE3XTJ6.0 miles 248°2018-07-14 10:52:43 LE3XTH6.0 miles 248°2018-07-14 10:58:35
LE3XTA6.0 miles 248°2018-07-14 09:34:53 LE3XTB6.0 miles 248°2018-07-14 09:17:18
LB4UG-16.0 miles 248°2018-07-14 14:01:55 LE3XTD6.0 miles 248°2018-07-14 09:21:59
LE3XTE6.0 miles 247°2018-07-14 10:50:46 LB4UG-76.0 miles 248°2018-07-14 00:54:37
LE3XTF6.0 miles 247°2018-07-14 08:10:02 LE3XTG6.0 miles 247°2018-07-14 07:54:50
LE3XTL6.0 miles 248°2018-07-14 10:17:46 LE3XDB6.5 miles 110°2018-07-14 12:54:10
LA5RRA-76.6 miles 252°2018-07-14 11:27:29 LE3XTM6.7 miles 107°2018-07-14 13:30:35
LE3XDD7.1 miles 299°2018-07-14 12:18:17 LD9SJ10.6 miles 176°2018-07-16 01:00:29
LA7QM-211.8 miles 197°2018-07-14 07:11:45 LB4UG-512.2 miles 41°2018-06-30 11:20:24
Stations which heard LE3XDA directly on radio –
callsign pkts first heard - EDT last heard longest (tx => rx) longest at - EDT
LD9BA 33 2018-07-13 17:55:59 2018-07-14 05:46:00 JP89UL > JP99QF 44.7 miles 113° 2018-07-14 05:46:00
LD9TK 31 2018-07-13 10:08:36 2018-07-14 12:18:41 JP89UL > JP99JR 31.8 miles 55° 2018-07-14 12:18:41
LA5RRA-7 41 2018-07-13 15:10:37 2018-07-14 10:45:07 JP89UL > JP89RK 6.6 miles 252° 2018-07-14 10:45:07
LE3XDB 22 2018-07-13 10:51:03 2018-07-14 11:26:30 JP89UL > JP89XK 6.5 miles 110° 2018-07-14 11:26:30

Only position packets which were originated by the station are shown here. The range statistics show some extra long hops, because some digipeaters do not correctly add themselves to the digipeater path. Please check the raw packets.
Stations heard directly by LE3XDA
callsign pkts first heard - EDT last heard longest (rx => tx) longest at - EDT
LA2MLA-9 11 2018-07-13 10:42:30 2018-07-14 12:19:17 JP89RM > JP89UL 7.1 miles 299° 2018-07-14 12:19:17
LA6TOA-9 14 2018-07-13 15:24:32 2018-07-13 15:56:24 JP99AJ > JP89UL 9.7 miles 120° 2018-07-13 15:56:24
LA5RRA-9 31 2018-07-13 10:25:42 2018-07-14 12:27:26 JP89QL > JP89UL 7.3 miles 274° 2018-07-14 12:07:22
LE3XTB 22 2018-07-14 07:48:25 2018-07-14 08:53:09 JP99AJ > JP89UL 10.3 miles 121° 2018-07-14 07:48:25
LA5RRA-7 5 2018-07-13 14:36:06 2018-07-14 11:27:29 JP89RK > JP89UL 6.6 miles 252° 2018-07-14 11:27:29
LE3XTF 5 2018-07-14 06:12:38 2018-07-14 06:29:18 JP89RM > JP89UL 5.7 miles 297° 2018-07-14 06:24:57
LE3XTG 16 2018-07-14 06:09:14 2018-07-14 07:01:08 JP89QL > JP89UL 8.3 miles 277° 2018-07-14 06:09:14
LE3XTJ 39 2018-07-14 09:03:42 2018-07-14 10:03:15 JP89RL > JP89UL 5.1 miles 280° 2018-07-14 10:03:15
LE3XTL 24 2018-07-14 08:43:47 2018-07-14 09:51:59 JP89QL > JP89UL 8.4 miles 277° 2018-07-14 09:51:59
LE3XDD 112 2018-07-13 11:41:55 2018-07-14 12:18:17 JP89RM > JP89UL 7.1 miles 299° 2018-07-14 12:18:17
LE3XTA 19 2018-07-14 08:04:28 2018-07-14 08:44:11 JP89WK > JP89UL 5.1 miles 111° 2018-07-14 08:04:28
LB4UG-6 5 2018-07-13 10:25:06 2018-07-13 10:42:05 JP89RM > JP89UL 7.0 miles 299° 2018-07-13 10:25:06
LE3XDB 19 2018-07-13 13:42:12 2018-07-14 08:32:48 JP89XK > JP89UL 6.5 miles 110° 2018-07-14 08:32:48
LB0XG-1 3 2018-07-13 13:30:24 2018-07-14 10:45:38 JP99AO > JP89UL 12.4 miles 42° 2018-07-14 10:45:38
LE3XTH 23 2018-07-14 07:50:50 2018-07-14 08:44:35 JP89XJ > JP89UL 8.5 miles 123° 2018-07-14 07:50:50
LE3XTD 23 2018-07-14 07:46:21 2018-07-14 08:46:10 JP99AJ > JP89UL 10.3 miles 122° 2018-07-14 07:46:21
LE3XTM 35 2018-07-14 06:12:12 2018-07-14 08:53:19 JP89RM > JP89UL 6.1 miles 299° 2018-07-14 06:31:59
LE3XTK 24 2018-07-14 07:50:09 2018-07-14 08:47:58 JP99AJ > JP89UL 9.7 miles 120° 2018-07-14 07:50:09
LB5ZH-9 3 2018-07-14 05:42:06 2018-07-14 11:58:13 JP99FM > JP89UL 19.6 miles 81° 2018-07-14 11:58:13
LE3XTE 38 2018-07-14 09:09:27 2018-07-14 10:19:32 JP99AJ > JP89UL 10.1 miles 120° 2018-07-14 09:09:27

Only stations from which a position packet has been heard are shown here. The range statistics show some extra long hops, because some digipeaters do not correctly add themselves to the digipeater path. Please check the raw packets.
About this site
This page shows real-time information collected from the Automatic Position Reporting System Internet network (APRS-IS). APRS is used by amateur (ham) radio operators to transmit real-time position information, weather data, telemetry and messages over the radio. A vehicle equipped with a GPS receiver, a VHF transmitter or HF transceiver and a small computer device called a tracker transmits it's location, speed and course in a small data packet, which is then received by a nearby iGate receiving site which forwards the packet on the Internet. Systems connected to the Internet can send information on the APRS-IS without a radio transmitter, or collect and display information transmitted anywhere in the world.
FAQ · Blog · Discussion group · Linking to aprs.fi · AIS sites · Service status · Database statistics · Advertising on aprs.fi · Technical details · API · Change log · Planned changes · Credits and thanks · Terms Of Service · iPhone/iPad APRS